createdAt,value
2018-12-17T00:02:29.896Z,24.10
2018-12-17T00:08:33.257Z,21.00
2018-12-17T00:14:36.578Z,23.03
2018-12-17T00:20:40.052Z,22.57
2018-12-17T00:26:43.401Z,21.57
2018-12-17T00:32:46.759Z,23.47
2018-12-17T00:38:50.107Z,22.33
2018-12-17T00:44:53.512Z,23.27
2018-12-17T00:50:56.875Z,21.80
2018-12-17T00:57:00.256Z,22.40
2018-12-17T01:03:03.700Z,23.27
2018-12-17T01:09:07.043Z,21.80
2018-12-17T01:15:10.374Z,23.00
2018-12-17T01:21:13.740Z,22.57
2018-12-17T01:27:17.066Z,22.40
2018-12-17T01:33:21.019Z,23.60
2018-12-17T01:39:24.469Z,21.00
2018-12-17T01:45:27.797Z,20.47
2018-12-17T01:51:31.119Z,23.20
2018-12-17T01:57:34.455Z,21.67
2018-12-17T02:03:37.802Z,20.57
2018-12-17T02:09:41.141Z,19.63
2018-12-17T02:15:44.479Z,20.33
2018-12-17T02:21:47.814Z,21.80
2018-12-17T02:27:51.166Z,21.30
2018-12-17T02:33:54.498Z,19.30
2018-12-17T02:39:57.844Z,18.43
2018-12-17T02:46:01.196Z,19.60
2018-12-17T02:52:04.532Z,21.00
2018-12-17T02:58:07.859Z,21.90
2018-12-17T03:04:11.194Z,18.40
2018-12-17T03:10:14.534Z,19.50
2018-12-17T03:16:17.857Z,19.47
2018-12-17T03:22:21.271Z,18.40
2018-12-17T03:28:24.614Z,18.37
2018-12-17T03:34:27.939Z,19.17
2018-12-17T03:40:31.270Z,18.90
2018-12-17T03:46:34.613Z,18.17
2018-12-17T03:52:37.946Z,17.80
2018-12-17T03:58:41.291Z,18.17
2018-12-17T04:04:44.799Z,17.80
2018-12-17T04:10:48.221Z,20.30
2018-12-17T04:16:51.559Z,18.53
2018-12-17T04:22:54.877Z,20.40
2018-12-17T04:28:58.206Z,20.50
2018-12-17T04:35:01.535Z,19.07
2018-12-17T04:41:04.945Z,19.23
2018-12-17T04:47:08.269Z,18.50
2018-12-17T04:53:11.599Z,19.20
2018-12-17T04:59:15.022Z,19.60
2018-12-17T05:05:18.706Z,19.40
2018-12-17T05:11:22.025Z,18.13
2018-12-17T05:17:25.356Z,16.90
2018-12-17T05:23:28.675Z,17.50
2018-12-17T05:29:32.121Z,15.93
2018-12-17T05:35:35.463Z,18.70
2018-12-17T05:41:38.799Z,15.77
2018-12-17T05:47:42.139Z,14.33
2018-12-17T05:53:45.472Z,14.50
2018-12-17T05:59:48.878Z,12.40
2018-12-17T06:05:52.229Z,12.73
2018-12-17T06:11:55.869Z,12.70
2018-12-17T06:17:59.214Z,12.57
2018-12-17T06:24:02.633Z,12.77
2018-12-17T06:30:06.212Z,10.93
2018-12-17T06:36:09.563Z,11.13
2018-12-17T06:42:12.896Z,13.87
2018-12-17T06:48:17.296Z,11.80
2018-12-17T06:54:21.892Z,11.90
2018-12-17T07:00:25.247Z,11.07
2018-12-17T07:06:28.616Z,11.97
2018-12-17T07:12:32.039Z,10.57
2018-12-17T07:18:35.389Z,11.27
2018-12-17T07:24:38.721Z,11.60
2018-12-17T07:30:42.061Z,11.70
2018-12-17T07:36:45.409Z,10.33
2018-12-17T07:42:48.772Z,11.87
2018-12-17T07:48:52.122Z,13.83
2018-12-17T07:54:55.473Z,12.70
2018-12-17T08:00:58.841Z,14.70
2018-12-17T08:07:02.183Z,14.60
2018-12-17T08:13:05.899Z,13.40
2018-12-17T08:19:09.262Z,13.47
2018-12-17T08:25:12.588Z,12.73
2018-12-17T08:31:15.932Z,14.10
2018-12-17T08:37:19.362Z,15.80
2018-12-17T08:43:22.692Z,12.90
2018-12-17T08:49:26.024Z,14.87
2018-12-17T08:55:29.342Z,16.17
2018-12-17T09:01:32.794Z,14.87
2018-12-17T09:07:36.138Z,14.83
2018-12-17T09:13:39.604Z,14.17
2018-12-17T09:19:43.009Z,14.40
2018-12-17T09:25:46.350Z,14.20
2018-12-17T09:31:49.711Z,14.80
2018-12-17T09:37:53.047Z,15.90
2018-12-17T09:43:56.383Z,14.77
2018-12-17T09:49:59.705Z,13.27
2018-12-17T09:56:03.031Z,15.00
2018-12-17T10:02:06.363Z,14.37
2018-12-17T10:08:09.696Z,16.03
2018-12-17T10:14:13.013Z,16.07
2018-12-17T10:20:16.343Z,13.40
2018-12-17T10:26:19.773Z,14.50
2018-12-17T10:32:23.129Z,13.40
2018-12-17T10:38:26.466Z,13.70
2018-12-17T10:44:29.805Z,13.77
2018-12-17T10:50:33.135Z,13.67
2018-12-17T10:56:36.477Z,13.53
2018-12-17T11:02:39.818Z,12.53
2018-12-17T11:08:43.163Z,12.37
2018-12-17T11:14:46.501Z,12.50
2018-12-17T11:20:49.962Z,11.60
2018-12-17T11:26:53.301Z,12.20
2018-12-17T11:32:56.629Z,10.80
2018-12-17T11:38:59.973Z,12.73
2018-12-17T11:45:03.394Z,11.83
2018-12-17T11:51:06.718Z,11.03
2018-12-17T11:57:19.643Z,11.13
2018-12-17T12:03:23.267Z,9.03
2018-12-17T12:09:26.591Z,8.33
2018-12-17T12:15:30.003Z,8.20
2018-12-17T12:21:33.415Z,9.13
2018-12-17T12:27:36.746Z,7.90
2018-12-17T12:33:40.159Z,6.97
2018-12-17T12:39:43.500Z,8.33
2018-12-17T12:45:46.924Z,7.80
2018-12-17T12:51:50.872Z,7.80
2018-12-17T12:57:54.191Z,8.07
2018-12-17T13:03:57.519Z,8.40
2018-12-17T13:10:00.852Z,8.13
2018-12-17T13:16:04.206Z,9.23
2018-12-17T13:22:07.552Z,10.20
2018-12-17T13:28:10.884Z,9.50
2018-12-17T13:34:14.225Z,10.37
2018-12-17T13:40:17.572Z,11.00
2018-12-17T13:46:21.002Z,11.07
2018-12-17T13:52:30.010Z,11.90
2018-12-17T13:58:33.338Z,11.00
2018-12-17T14:04:36.695Z,11.27
2018-12-17T14:10:45.465Z,10.73
2018-12-17T14:16:54.349Z,10.60
2018-12-17T14:22:57.691Z,10.10
2018-12-17T14:29:01.034Z,10.23
2018-12-17T14:35:04.821Z,10.47
2018-12-17T14:41:08.195Z,12.87
2018-12-17T14:47:11.543Z,10.43
2018-12-17T14:53:14.907Z,10.13
2018-12-17T14:59:18.276Z,9.93
2018-12-17T15:05:21.605Z,10.97
2018-12-17T15:11:24.949Z,10.67
2018-12-17T15:17:28.274Z,10.73
2018-12-17T15:23:31.650Z,11.43
2018-12-17T15:29:35.017Z,9.90
2018-12-17T15:35:38.467Z,8.90
2018-12-17T15:41:41.796Z,9.23
2018-12-17T15:47:45.242Z,12.63
2018-12-17T15:53:48.809Z,7.70
2018-12-17T15:59:52.176Z,7.73
2018-12-17T16:05:55.496Z,7.03
2018-12-17T16:11:58.822Z,7.83
2018-12-17T16:18:02.212Z,8.40
2018-12-17T16:24:05.623Z,8.03
2018-12-17T16:30:10.125Z,7.40
2018-12-17T16:36:13.489Z,8.00
2018-12-17T16:42:16.833Z,12.00
2018-12-17T16:48:20.184Z,10.13
2018-12-17T16:54:23.548Z,8.70
2018-12-17T17:00:26.875Z,8.80
2018-12-17T17:06:30.211Z,9.20
2018-12-17T17:12:33.626Z,8.53
2018-12-17T17:18:36.982Z,8.50
2018-12-17T17:24:40.355Z,8.90
2018-12-17T17:30:43.688Z,11.10
2018-12-17T17:36:47.021Z,9.10
2018-12-17T17:42:50.378Z,8.63
2018-12-17T17:48:53.727Z,9.63
2018-12-17T17:54:57.047Z,11.50
2018-12-17T18:01:00.453Z,11.10
2018-12-17T18:07:03.790Z,9.87
2018-12-17T18:13:07.146Z,10.80
2018-12-17T18:19:10.483Z,10.93
2018-12-17T18:25:13.840Z,12.30
2018-12-17T18:31:17.198Z,15.60
2018-12-17T18:37:21.199Z,14.07
2018-12-17T18:43:24.569Z,12.67
2018-12-17T18:49:27.908Z,12.97
2018-12-17T18:55:31.260Z,13.10
2018-12-17T19:01:34.600Z,12.63
2018-12-17T19:07:37.941Z,13.33
2018-12-17T19:13:41.271Z,14.33
2018-12-17T19:19:44.618Z,14.50
2018-12-17T19:25:47.985Z,13.27
2018-12-17T19:31:51.903Z,13.27
2018-12-17T19:37:55.309Z,12.30
2018-12-17T19:43:58.644Z,12.07
2018-12-17T19:50:01.981Z,12.57
2018-12-17T19:56:05.424Z,11.53
2018-12-17T20:02:08.797Z,11.40
2018-12-17T20:08:12.136Z,11.37
2018-12-17T20:14:15.469Z,13.30
2018-12-17T20:20:18.808Z,11.47
2018-12-17T20:26:22.143Z,13.03
2018-12-17T20:32:25.618Z,12.80
2018-12-17T20:38:28.949Z,11.90
2018-12-17T20:44:32.290Z,11.37
2018-12-17T20:50:35.630Z,11.17
2018-12-17T20:56:38.972Z,10.80
2018-12-17T21:02:42.316Z,12.00
2018-12-17T21:08:45.665Z,12.43
2018-12-17T21:14:50.947Z,10.37
2018-12-17T21:20:54.276Z,13.97
2018-12-17T21:26:57.626Z,11.70
2018-12-17T21:33:06.601Z,11.13
2018-12-17T21:39:07.101Z,11.70
2018-12-17T21:45:10.443Z,11.53
2018-12-17T21:51:13.805Z,12.97
2018-12-17T21:57:17.147Z,12.50
2018-12-17T22:03:21.092Z,12.93
2018-12-17T22:09:24.408Z,15.10
2018-12-17T22:15:27.763Z,14.93
2018-12-17T22:21:31.114Z,14.40
2018-12-17T22:27:34.445Z,14.67
2018-12-17T22:33:37.775Z,14.40
2018-12-17T22:39:41.126Z,15.40
2018-12-17T22:45:44.672Z,16.90
2018-12-17T22:51:48.017Z,16.37
2018-12-17T22:57:51.377Z,16.60
2018-12-17T23:03:54.698Z,16.97
2018-12-17T23:10:15.998Z,15.03
2018-12-17T23:16:37.258Z,16.67
2018-12-17T23:22:42.670Z,15.10
2018-12-17T23:28:46.976Z,15.40
2018-12-17T23:34:51.167Z,16.67
2018-12-17T23:40:54.505Z,16.43
2018-12-17T23:46:57.936Z,15.57
2018-12-17T23:53:01.276Z,15.60
2018-12-17T23:59:04.680Z,13.97
